createdAt,value
2022-11-03T00:03:43.355Z,76.65
2022-11-03T00:13:44.775Z,76.27
2022-11-03T00:23:46.623Z,76.52
2022-11-03T00:33:48.312Z,76.36
2022-11-03T00:43:50.966Z,76.92
2022-11-03T00:53:57.211Z,76.78
2022-11-03T01:04:18.212Z,77.46
2022-11-03T01:14:19.937Z,77.45
2022-11-03T01:24:21.533Z,78.13
2022-11-03T01:34:22.989Z,77.84
2022-11-03T01:44:28.979Z,78.34
2022-11-03T01:54:31.962Z,79.30
2022-11-03T02:04:34.527Z,79.09
2022-11-03T02:14:42.762Z,80.08
2022-11-03T02:24:54.179Z,80.47
2022-11-03T02:35:24.308Z,80.47
2022-11-03T02:45:27.813Z,80.36
2022-11-03T02:55:45.868Z,81.36
2022-11-03T03:05:48.809Z,81.63
2022-11-03T03:16:05.918Z,80.99
2022-11-03T03:26:39.381Z,82.56
2022-11-03T03:36:43.356Z,81.83
2022-11-03T03:46:50.820Z,82.75
2022-11-03T03:56:59.468Z,82.55
2022-11-03T04:07:19.645Z,82.01
2022-11-03T04:17:39.500Z,82.18
2022-11-03T04:27:44.474Z,82.44
2022-11-03T04:37:50.777Z,83.35
2022-11-03T04:47:53.254Z,83.92
2022-11-03T04:57:58.329Z,84.19
2022-11-03T05:07:59.692Z,84.05
2022-11-03T05:18:13.151Z,84.10
2022-11-03T05:28:31.948Z,83.92
2022-11-03T05:38:33.765Z,84.13
2022-11-03T05:48:40.908Z,84.29
2022-11-03T05:58:44.194Z,83.85
2022-11-03T06:08:46.339Z,83.98
2022-11-03T06:18:47.946Z,83.48
2022-11-03T06:28:49.519Z,83.92
2022-11-03T06:38:56.775Z,84.48
2022-11-03T06:49:00.288Z,84.06
2022-11-03T06:59:01.732Z,84.20
2022-11-03T07:09:07.261Z,84.07
2022-11-03T07:19:26.698Z,83.24
2022-11-03T07:29:31.095Z,83.34
2022-11-03T07:39:36.812Z,83.11
2022-11-03T07:49:38.181Z,82.78
2022-11-03T07:59:43.844Z,81.83
2022-11-03T08:09:45.178Z,82.01
2022-11-03T08:19:46.558Z,80.79
2022-11-03T08:29:47.976Z,80.33
2022-11-03T08:39:49.322Z,80.43
2022-11-03T08:49:50.652Z,80.52
2022-11-03T08:59:52.974Z,79.77
2022-11-03T09:20:15.730Z,79.26
2022-11-03T09:30:17.917Z,79.33
2022-11-03T09:40:19.720Z,77.89
2022-11-03T09:50:21.301Z,77.91
2022-11-03T10:00:23.786Z,77.69
2022-11-03T10:10:26.031Z,76.16
2022-11-03T10:20:29.037Z,75.98
2022-11-03T10:30:36.247Z,74.60
2022-11-03T10:40:48.112Z,73.65
2022-11-03T10:50:49.955Z,73.38
2022-11-03T11:00:51.402Z,71.89
2022-11-03T11:10:53.879Z,72.34
2022-11-03T11:21:00.001Z,70.04
2022-11-03T11:31:02.017Z,69.10
2022-11-03T11:41:03.357Z,68.25
2022-11-03T11:51:10.688Z,67.46
2022-11-03T12:01:33.746Z,66.48
2022-11-03T12:11:56.805Z,67.69
2022-11-03T12:21:59.117Z,67.78
2022-11-03T12:32:00.479Z,69.73
2022-11-03T12:42:01.843Z,68.63
2022-11-03T12:52:08.342Z,68.98
2022-11-03T13:02:11.018Z,69.00
2022-11-03T13:12:31.183Z,69.46
2022-11-03T13:22:32.530Z,69.37
2022-11-03T13:32:34.003Z,69.59
2022-11-03T13:42:35.359Z,69.00
2022-11-03T13:52:36.744Z,69.89
2022-11-03T14:12:59.396Z,69.57
2022-11-03T14:23:00.744Z,70.23
2022-11-03T14:33:02.069Z,69.72
2022-11-03T14:43:03.413Z,70.27
2022-11-03T14:53:04.768Z,70.89
2022-11-03T15:03:06.075Z,73.21
2022-11-03T15:13:08.017Z,76.82
2022-11-03T15:33:31.092Z,83.74
2022-11-03T15:43:32.436Z,84.74
2022-11-03T15:53:33.897Z,87.83
2022-11-03T16:03:35.238Z,89.03
2022-11-03T16:13:36.615Z,88.81
2022-11-03T16:23:37.963Z,91.38
2022-11-03T16:33:39.306Z,91.79
2022-11-03T16:43:40.640Z,91.97
2022-11-03T16:53:42.179Z,92.25
2022-11-03T17:03:44.291Z,92.68
2022-11-03T17:13:45.624Z,93.63
2022-11-03T17:23:46.964Z,93.58
2022-11-03T17:33:48.418Z,94.01
2022-11-03T17:43:49.874Z,94.31
2022-11-03T17:53:51.475Z,93.67
2022-11-03T18:03:53.417Z,93.03
2022-11-03T18:13:54.823Z,93.97
2022-11-03T18:23:56.248Z,93.73
2022-11-03T18:33:58.756Z,93.17
2022-11-03T18:44:00.516Z,93.25
2022-11-03T18:54:02.005Z,93.45
2022-11-03T19:04:03.495Z,93.47
2022-11-03T19:14:06.967Z,93.05
2022-11-03T19:24:08.429Z,94.14
2022-11-03T19:34:15.651Z,94.53
2022-11-03T19:44:16.998Z,95.62
2022-11-03T19:54:20.745Z,95.44
2022-11-03T20:04:22.118Z,95.50
2022-11-03T20:14:26.956Z,95.27
2022-11-03T20:24:28.391Z,94.89
2022-11-03T20:34:29.772Z,94.58
2022-11-03T20:44:31.273Z,95.62
2022-11-03T20:54:32.844Z,97.16
2022-11-03T21:04:34.203Z,96.69
2022-11-03T21:14:35.770Z,95.54
2022-11-03T21:24:37.119Z,97.02
2022-11-03T21:34:39.222Z,96.15
2022-11-03T21:44:40.558Z,95.71
2022-11-03T21:54:43.014Z,94.73
2022-11-03T22:04:47.540Z,96.08
2022-11-03T22:15:07.211Z,95.52
2022-11-03T22:25:28.479Z,94.38
2022-11-03T22:35:49.030Z,93.03
2022-11-03T22:45:54.845Z,92.34
2022-11-03T22:55:58.061Z,92.69
2022-11-03T23:06:04.305Z,91.42
2022-11-03T23:16:13.621Z,89.71
2022-11-03T23:26:16.042Z,89.57
2022-11-03T23:36:17.975Z,88.90
2022-11-03T23:46:40.401Z,89.47
2022-11-03T23:57:03.804Z,88.85
